New Kowloon, China
Current Conditions -  °F | °C
As of 2:30 PM on Thursday 29 Jan 2015 (Local Time) from VHHH Reporting Station
Few Clouds Few Clouds  
Wind Chill: 70°   Ceiling: Unl
Heat Index: 70°   Visibility: 6mi
Dew Point: 55°   Wind: 8mph
Humidity: 60%   Direction: 280°W
Pressure: 30.06"   Gusts: NA
Location:  22.33°N, 114.15°E
Report Text: VHHH 290630Z 28007KT 9000 FEW030 21/13 Q1018 NOSIG
Loading
Personal Weather Stations






























Interactive Weather Map New forecast layout! Learn more

10-Day Weather Forecast

Advertisements
Track Severe Weather on mobile